マドリード/バラハス の空港の天気 - METARとTAF

マドリード・バラハス国際空港 ( LEMD / MAD ) - スペイン マドリード
飛行場実況気象(Metar)
観測時間06/23 03:30 CEST (06/23 01:30 UTC)
風向・風速北北西 1m/s
視程10km以上
天気現象
なし
気温26℃
湿度42%
気圧1020hPa
METARLEMD 230130Z 33002KT CAVOK 26/12 Q1020 NOSIG
過去の天気等 Google飛行場航空写真 Wunderground天気予報

過去48時間のMETAR

飛行場予報(TAF)
発表時間: 6/23 01:00 CEST (6/22 23:00 UTC)
予報対象時間: 23日2時 CEST ~ 24日8時 CEST
風向・風速不定 3m/s
視程10km以上
なし
23日12時 CEST ~ 23日14時 CEST に徐々に
風向・風速南西 5m/s
23日14時 CEST ~ 23日20時 CEST に一時的に
風向・風速南西 8m/s 瞬間風速 13m/s
23日20時 CEST ~ 23日22時 CEST に徐々に
風向・風速西 3m/s
TAF LEMD 222300Z 2300/2406 VRB05KT CAVOK TX38/2315Z TN22/2306Z
BECMG 2310/2312 23010KT
TEMPO 2312/2318 23015G25KT
BECMG 2318/2320 27006KT